Time;durP1;ratioP1;P1;durP2;ratioP2;P2;SDS_P1;SDS_P2;PMS_P1;PMS_P2;Temp;Humidity;BMP_temperature;BMP_pressure;BME280_temperature;BME280_humidity;BME280_pressure;Samples;Min_cycle;Max_cycle;Signal;HPM_P1;HPM_P2
2021/03/14 00:01:31;;;;;;;;;;;8.90;79.80;;;;;;5025120;28;20315;-59
2021/03/14 00:03:56;;;;;;;;;;;9.00;79.70;;;;;;5027097;28;19967;-59
2021/03/14 00:06:21;;;;;;;;;;;9.00;79.80;;;;;;5023707;28;19913;-59
2021/03/14 00:08:47;;;;;;;;;;;9.00;79.80;;;;;;5037550;28;19913;-59
2021/03/14 00:11:12;;;;;;;;;;;8.90;80.00;;;;;;5024835;28;19932;-59
2021/03/14 00:13:38;;;;;;;;;;;8.90;79.90;;;;;;5040684;28;19909;-59
2021/03/14 00:16:04;;;;;;;;;;;8.90;80.10;;;;;;5021363;28;19913;-58
2021/03/14 00:18:30;;;;;;;;;;;8.90;80.40;;;;;;5041755;28;19920;-57
2021/03/14 00:20:56;;;;;;;;;;;8.80;80.20;;;;;;5023429;28;20246;-59
2021/03/14 00:23:21;;;;;;;;;;;8.80;80.30;;;;;;5023955;28;19963;-58
2021/03/14 00:25:47;;;;;;;;;;;8.80;80.40;;;;;;5021915;28;19909;-58
2021/03/14 00:28:14;;;;;;;;;;;8.70;80.50;;;;;;5023752;28;19931;-58
2021/03/14 00:30:39;;;;;;;;;;;8.70;80.60;;;;;;5026330;28;19920;-57
2021/03/14 00:33:05;;;;;;;;;;;8.70;80.70;;;;;;5026201;28;19909;-59
2021/03/14 00:35:30;;;;;;;;;;;8.60;80.70;;;;;;5026919;28;19936;-57
2021/03/14 00:37:56;;;;;;;;;;;8.60;80.70;;;;;;5026240;28;19909;-59
2021/03/14 00:40:22;;;;;;;;;;;8.60;80.70;;;;;;5022280;28;19913;-59
2021/03/14 00:42:47;;;;;;;;;;;8.60;80.70;;;;;;5034413;28;20450;-57
2021/03/14 00:45:13;;;;;;;;;;;8.60;80.70;;;;;;5031519;28;20004;-57
2021/03/14 00:47:38;;;;;;;;;;;8.50;80.70;;;;;;5028377;28;19910;-58
2021/03/14 00:50:07;;;;;;;;;;;8.50;80.70;;;;;;5030492;28;19913;-58
2021/03/14 00:52:33;;;;;;;;;;;8.50;80.90;;;;;;5026219;28;19910;-58
2021/03/14 00:54:58;;;;;;;;;;;8.50;80.70;;;;;;5036688;28;19913;-57
2021/03/14 00:57:24;;;;;;;;;;;8.50;80.80;;;;;;5027073;28;19917;-57
2021/03/14 00:59:49;;;;;;;;;;;8.40;80.80;;;;;;5022531;28;20355;-56
2021/03/14 01:02:15;;;;;;;;;;;8.40;80.70;;;;;;5028104;28;19921;-59
2021/03/14 01:04:40;;;;;;;;;;;8.40;80.70;;;;;;5029774;28;19913;-58
2021/03/14 01:07:06;;;;;;;;;;;8.40;80.70;;;;;;5026884;28;19952;-58
2021/03/14 01:09:31;;;;;;;;;;;8.40;80.70;;;;;;5029820;28;19910;-57
2021/03/14 01:11:56;;;;;;;;;;;8.40;80.80;;;;;;5029467;28;20254;-58
2021/03/14 01:14:22;;;;;;;;;;;8.30;80.70;;;;;;5028380;28;19921;-59
2021/03/14 01:16:47;;;;;;;;;;;8.30;80.70;;;;;;5029194;28;19924;-57
2021/03/14 01:19:13;;;;;;;;;;;8.30;80.60;;;;;;5024412;28;19916;-59
2021/03/14 01:21:38;;;;;;;;;;;8.30;80.50;;;;;;5027136;28;20331;-59
2021/03/14 01:24:04;;;;;;;;;;;8.30;80.50;;;;;;5030067;28;19960;-57
2021/03/14 01:26:29;;;;;;;;;;;8.30;80.50;;;;;;5029527;28;19913;-59
2021/03/14 01:28:55;;;;;;;;;;;8.30;81.30;;;;;;5029965;28;20368;-58
2021/03/14 01:31:20;;;;;;;;;;;8.20;80.70;;;;;;5027717;28;19932;-59
2021/03/14 01:33:45;;;;;;;;;;;8.20;80.80;;;;;;5027000;28;19910;-57
2021/03/14 01:36:11;;;;;;;;;;;8.20;80.70;;;;;;5029011;28;19917;-59
2021/03/14 01:38:36;;;;;;;;;;;8.20;80.70;;;;;;5030007;28;19909;-57
2021/03/14 01:41:02;;;;;;;;;;;8.20;80.60;;;;;;5028919;28;19932;-57
2021/03/14 01:43:30;;;;;;;;;;;8.20;80.60;;;;;;5027754;28;19997;-59
2021/03/14 01:45:56;;;;;;;;;;;8.20;81.40;;;;;;5026967;28;19921;-57
2021/03/14 01:48:22;;;;;;;;;;;8.20;80.70;;;;;;5027594;28;20276;-59
2021/03/14 01:50:48;;;;;;;;;;;8.20;80.60;;;;;;5029263;28;20332;-59
2021/03/14 01:53:13;;;;;;;;;;;8.20;80.80;;;;;;5042446;28;19915;-57
2021/03/14 01:55:39;;;;;;;;;;;8.10;80.70;;;;;;5027554;28;20352;-59
2021/03/14 01:58:04;;;;;;;;;;;8.10;80.70;;;;;;5021046;28;19915;-57
2021/03/14 02:00:29;;;;;;;;;;;8.10;80.70;;;;;;5040374;28;19924;-59
2021/03/14 02:02:55;;;;;;;;;;;8.10;80.60;;;;;;5029320;28;19925;-59
2021/03/14 02:05:20;;;;;;;;;;;8.10;80.70;;;;;;5009593;28;20394;-59
2021/03/14 02:07:47;;;;;;;;;;;8.10;80.70;;;;;;5029079;28;19960;-58
2021/03/14 02:10:13;;;;;;;;;;;8.10;80.90;;;;;;5026727;28;19920;-57
2021/03/14 02:12:41;;;;;;;;;;;8.10;80.70;;;;;;5024817;28;19909;-58
2021/03/14 02:15:06;;;;;;;;;;;8.00;80.60;;;;;;5040254;28;19960;-60
2021/03/14 02:17:33;;;;;;;;;;;8.00;80.80;;;;;;5027188;28;20318;-58
2021/03/14 02:20:25;;;;;;;;;;;8.00;80.70;;;;;;5029758;28;19910;-57
2021/03/14 02:22:53;;;;;;;;;;;8.00;80.70;;;;;;5025730;28;19909;-57
2021/03/14 02:25:23;;;;;;;;;;;8.00;80.80;;;;;;5025372;28;19959;-57
2021/03/14 02:27:48;;;;;;;;;;;8.00;80.80;;;;;;5030077;28;19938;-57
2021/03/14 02:30:14;;;;;;;;;;;8.00;80.70;;;;;;5026331;28;20395;-57
2021/03/14 02:32:40;;;;;;;;;;;8.00;80.80;;;;;;5028352;28;19920;-59
2021/03/14 02:35:05;;;;;;;;;;;7.90;80.80;;;;;;5022671;28;20176;-58
2021/03/14 02:37:31;;;;;;;;;;;7.90;80.90;;;;;;5022481;28;20574;-58
2021/03/14 02:39:57;;;;;;;;;;;7.90;81.00;;;;;;5025558;28;19917;-58
2021/03/14 02:42:22;;;;;;;;;;;7.90;81.00;;;;;;5025329;28;19909;-59
2021/03/14 02:44:48;;;;;;;;;;;7.90;81.10;;;;;;5027873;28;19944;-59
2021/03/14 02:47:14;;;;;;;;;;;7.80;81.10;;;;;;5028223;28;20288;-59
2021/03/14 02:49:39;;;;;;;;;;;7.80;81.10;;;;;;5042219;28;20420;-58
2021/03/14 02:52:05;;;;;;;;;;;7.90;81.10;;;;;;5024919;28;19916;-57
2021/03/14 02:54:33;;;;;;;;;;;7.80;81.30;;;;;;5023189;28;19913;-57
2021/03/14 02:56:58;;;;;;;;;;;7.80;81.20;;;;;;5026700;28;19997;-59
2021/03/14 02:59:24;;;;;;;;;;;7.80;81.30;;;;;;5028216;28;19912;-57
2021/03/14 03:01:50;;;;;;;;;;;7.80;81.30;;;;;;5027170;28;19913;-58
2021/03/14 03:04:16;;;;;;;;;;;7.70;81.30;;;;;;5024093;28;19979;-59
2021/03/14 03:06:41;;;;;;;;;;;7.70;81.40;;;;;;5027541;28;19967;-59
2021/03/14 03:09:08;;;;;;;;;;;7.70;81.40;;;;;;5027837;28;20349;-57
2021/03/14 03:11:33;;;;;;;;;;;7.70;81.40;;;;;;5023819;28;20012;-57
2021/03/14 03:13:59;;;;;;;;;;;7.70;81.50;;;;;;5029230;28;19953;-58
2021/03/14 03:16:24;;;;;;;;;;;7.60;81.40;;;;;;5025727;28;20426;-59
2021/03/14 03:18:50;;;;;;;;;;;7.60;81.40;;;;;;5028200;28;19917;-57
2021/03/14 03:21:16;;;;;;;;;;;7.60;81.30;;;;;;5025938;28;20348;-59
2021/03/14 03:23:41;;;;;;;;;;;7.60;81.40;;;;;;5026198;28;19967;-57
2021/03/14 03:26:08;;;;;;;;;;;7.60;81.40;;;;;;5024441;28;20281;-60
2021/03/14 03:28:33;;;;;;;;;;;7.60;81.40;;;;;;5026129;28;19916;-57
2021/03/14 03:30:59;;;;;;;;;;;7.60;81.40;;;;;;5024128;28;19905;-59
2021/03/14 03:33:25;;;;;;;;;;;7.60;81.50;;;;;;5021771;28;19964;-58
2021/03/14 03:35:50;;;;;;;;;;;7.60;81.50;;;;;;5021786;28;19928;-57
2021/03/14 03:38:16;;;;;;;;;;;7.60;81.50;;;;;;5021520;28;19914;-57
2021/03/14 03:40:41;;;;;;;;;;;7.60;81.40;;;;;;5022794;28;19913;-57
2021/03/14 03:43:21;;;;;;;;;;;7.50;81.50;;;;;;5022624;28;20034;-60
2021/03/14 03:45:47;;;;;;;;;;;7.50;81.50;;;;;;5025894;28;20828;-59
2021/03/14 03:48:15;;;;;;;;;;;7.50;81.50;;;;;;5023842;28;20281;-59
2021/03/14 03:50:40;;;;;;;;;;;7.50;81.50;;;;;;5040124;28;19921;-59
2021/03/14 03:53:06;;;;;;;;;;;7.50;81.50;;;;;;5026148;28;19913;-59
2021/03/14 03:55:31;;;;;;;;;;;7.50;81.50;;;;;;5024820;28;19917;-58
2021/03/14 03:57:57;;;;;;;;;;;7.50;81.40;;;;;;5024201;28;19936;-57
2021/03/14 04:00:22;;;;;;;;;;;7.50;81.70;;;;;;5016510;28;20356;-59
2021/03/14 04:02:48;;;;;;;;;;;7.50;81.50;;;;;;5022241;28;19932;-58
2021/03/14 04:05:13;;;;;;;;;;;7.50;81.50;;;;;;5004562;28;19914;-59
2021/03/14 04:07:39;;;;;;;;;;;7.50;81.40;;;;;;5021542;28;19916;-57
2021/03/14 04:10:07;;;;;;;;;;;7.50;81.30;;;;;;5038760;28;19909;-59
2021/03/14 04:12:32;;;;;;;;;;;7.50;81.60;;;;;;5025055;28;19909;-58
2021/03/14 04:14:58;;;;;;;;;;;7.50;81.40;;;;;;5040068;28;19966;-59
2021/03/14 04:17:23;;;;;;;;;;;7.40;81.40;;;;;;5026297;28;19917;-57
2021/03/14 04:19:49;;;;;;;;;;;7.40;81.40;;;;;;5029766;28;20368;-59
2021/03/14 04:22:14;;;;;;;;;;;7.40;81.40;;;;;;5043047;28;19909;-58
2021/03/14 04:24:39;;;;;;;;;;;7.40;81.40;;;;;;5029992;28;19909;-58
2021/03/14 04:27:05;;;;;;;;;;;7.40;81.40;;;;;;5045955;28;19909;-59
2021/03/14 04:29:31;;;;;;;;;;;7.30;81.40;;;;;;5025190;28;20380;-58
2021/03/14 04:31:56;;;;;;;;;;;7.30;81.40;;;;;;5033704;28;19909;-58
2021/03/14 04:34:21;;;;;;;;;;;7.30;81.50;;;;;;5027853;28;20741;-56
2021/03/14 04:36:47;;;;;;;;;;;7.30;81.50;;;;;;5033143;28;19936;-59
2021/03/14 04:39:13;;;;;;;;;;;7.30;81.50;;;;;;5034351;28;20007;-58
2021/03/14 04:41:38;;;;;;;;;;;7.30;81.60;;;;;;5028964;28;20268;-59
2021/03/14 04:44:05;;;;;;;;;;;7.30;81.60;;;;;;5029396;28;19909;-58
2021/03/14 04:46:30;;;;;;;;;;;7.20;81.60;;;;;;5027496;28;20016;-57
2021/03/14 04:48:56;;;;;;;;;;;7.20;81.70;;;;;;5028573;28;20008;-58
2021/03/14 04:51:25;;;;;;;;;;;7.20;81.70;;;;;;5031862;28;19959;-56
2021/03/14 04:53:50;;;;;;;;;;;7.20;81.70;;;;;;5045598;28;19913;-57
2021/03/14 04:56:15;;;;;;;;;;;7.20;81.70;;;;;;5031518;28;19960;-57
2021/03/14 04:58:41;;;;;;;;;;;7.20;81.60;;;;;;5045647;28;19915;-58
2021/03/14 05:01:06;;;;;;;;;;;7.20;81.60;;;;;;5029899;28;19909;-58
2021/03/14 05:03:32;;;;;;;;;;;7.10;81.70;;;;;;5043985;28;19921;-58
2021/03/14 05:05:57;;;;;;;;;;;7.20;81.50;;;;;;5030125;28;19910;-58
2021/03/14 05:08:23;;;;;;;;;;;7.20;81.50;;;;;;5026626;28;19932;-57
2021/03/14 05:10:49;;;;;;;;;;;7.10;81.50;;;;;;5029577;28;20261;-57
2021/03/14 05:13:15;;;;;;;;;;;7.10;81.30;;;;;;5022798;28;19909;-57
2021/03/14 05:15:40;;;;;;;;;;;7.10;81.30;;;;;;5023356;28;19920;-59
2021/03/14 05:18:06;;;;;;;;;;;7.10;81.30;;;;;;5034816;28;19916;-59
2021/03/14 05:20:32;;;;;;;;;;;7.30;81.40;;;;;;5025071;28;19909;-57
2021/03/14 05:22:57;;;;;;;;;;;7.10;81.20;;;;;;5026496;28;19971;-59
2021/03/14 05:25:22;;;;;;;;;;;7.10;81.20;;;;;;5027751;28;19996;-59
2021/03/14 05:27:49;;;;;;;;;;;7.10;81.20;;;;;;5026697;28;19913;-57
2021/03/14 05:30:25;;;;;;;;;;;7.10;81.10;;;;;;5023161;28;19910;-57
2021/03/14 05:32:50;;;;;;;;;;;7.10;81.00;;;;;;5028605;28;19959;-57
2021/03/14 05:35:17;;;;;;;;;;;7.00;81.00;;;;;;5026537;28;19957;-57
2021/03/14 05:37:42;;;;;;;;;;;7.00;81.00;;;;;;5028722;28;20008;-58
2021/03/14 05:40:08;;;;;;;;;;;7.00;80.90;;;;;;5026360;28;20047;-60
2021/03/14 05:42:33;;;;;;;;;;;7.00;80.90;;;;;;5029356;28;19920;-58
2021/03/14 05:44:59;;;;;;;;;;;7.00;80.90;;;;;;5028907;28;19932;-58
2021/03/14 05:47:24;;;;;;;;;;;7.00;80.90;;;;;;5028756;28;19960;-58
2021/03/14 05:49:50;;;;;;;;;;;7.00;80.90;;;;;;5029686;28;19960;-57
2021/03/14 05:52:16;;;;;;;;;;;7.00;80.90;;;;;;5022928;28;20000;-58
2021/03/14 05:54:41;;;;;;;;;;;7.00;80.80;;;;;;5023196;28;19945;-59
2021/03/14 05:57:07;;;;;;;;;;;7.00;80.80;;;;;;5051076;28;19916;-58
2021/03/14 05:59:32;;;;;;;;;;;7.00;80.90;;;;;;5027339;28;19909;-59
2021/03/14 06:01:58;;;;;;;;;;;7.00;80.80;;;;;;5041429;28;19917;-58
2021/03/14 06:04:24;;;;;;;;;;;7.00;80.80;;;;;;5024441;28;19925;-58
2021/03/14 06:06:50;;;;;;;;;;;7.00;80.80;;;;;;5042449;28;19914;-59
2021/03/14 06:09:15;;;;;;;;;;;7.00;80.80;;;;;;5027195;28;20379;-58
2021/03/14 06:11:41;;;;;;;;;;;7.00;80.80;;;;;;5028390;28;19920;-57
2021/03/14 06:14:08;;;;;;;;;;;7.00;80.80;;;;;;5028762;28;20425;-57
2021/03/14 06:16:33;;;;;;;;;;;7.00;80.80;;;;;;5027895;28;19917;-58
2021/03/14 06:18:58;;;;;;;;;;;6.90;80.70;;;;;;5027442;28;20252;-57
2021/03/14 06:21:25;;;;;;;;;;;7.00;80.70;;;;;;5026081;28;19917;-58
2021/03/14 06:23:54;;;;;;;;;;;6.90;80.60;;;;;;5028696;28;19909;-57
2021/03/14 06:26:20;;;;;;;;;;;7.00;80.60;;;;;;5026317;28;19909;-56
2021/03/14 06:28:45;;;;;;;;;;;6.90;80.60;;;;;;5028245;28;19916;-58
2021/03/14 06:31:17;;;;;;;;;;;7.00;80.60;;;;;;5024721;28;20037;-58
2021/03/14 06:33:43;;;;;;;;;;;7.00;80.50;;;;;;5024445;28;19921;-59
2021/03/14 06:36:14;;;;;;;;;;;6.90;80.40;;;;;;5023831;28;19917;-58
2021/03/14 06:38:40;;;;;;;;;;;6.90;80.40;;;;;;5027539;28;19916;-57
2021/03/14 06:41:05;;;;;;;;;;;6.90;80.40;;;;;;5028069;28;19913;-57
2021/03/14 06:43:31;;;;;;;;;;;6.90;80.50;;;;;;5026486;28;20290;-57
2021/03/14 06:45:56;;;;;;;;;;;6.90;80.40;;;;;;5024403;28;19909;-57
2021/03/14 06:48:25;;;;;;;;;;;6.90;80.40;;;;;;5026416;28;20022;-56
2021/03/14 06:50:51;;;;;;;;;;;6.90;80.30;;;;;;5028230;28;20335;-58
2021/03/14 06:53:17;;;;;;;;;;;7.00;80.30;;;;;;5041836;28;19913;-56
2021/03/14 06:55:43;;;;;;;;;;;6.90;80.20;;;;;;5027503;28;20368;-59
2021/03/14 06:58:25;;;;;;;;;;;6.90;80.20;;;;;;5039208;28;19909;-59
2021/03/14 07:01:26;;;;;;;;;;;7.00;80.20;;;;;;5028820;28;19913;-57
2021/03/14 07:03:52;;;;;;;;;;;7.00;80.10;;;;;;4985191;28;20020;-57
2021/03/14 07:06:24;;;;;;;;;;;7.00;80.10;;;;;;5017465;28;19992;-57
2021/03/14 07:08:50;;;;;;;;;;;7.00;80.00;;;;;;5027398;28;20003;-59
2021/03/14 07:11:35;;;;;;;;;;;6.90;80.00;;;;;;5035904;28;19913;-57
2021/03/14 07:14:00;;;;;;;;;;;6.90;80.00;;;;;;5026698;28;19913;-58
2021/03/14 07:16:44;;;;;;;;;;;6.90;80.00;;;;;;5024620;28;20358;-57
2021/03/14 07:19:14;;;;;;;;;;;6.90;80.00;;;;;;5026293;28;19913;-57
2021/03/14 07:21:39;;;;;;;;;;;7.00;80.10;;;;;;5026005;28;19909;-58
2021/03/14 07:24:09;;;;;;;;;;;6.90;80.00;;;;;;5026172;28;19916;-57
2021/03/14 07:26:38;;;;;;;;;;;6.90;79.90;;;;;;5024318;28;19951;-58
2021/03/14 07:29:03;;;;;;;;;;;7.00;79.90;;;;;;5027558;28;19916;-58
2021/03/14 07:31:29;;;;;;;;;;;7.00;79.90;;;;;;5023575;28;19910;-57
2021/03/14 07:33:54;;;;;;;;;;;7.00;80.00;;;;;;5042814;28;19917;-57
2021/03/14 07:36:20;;;;;;;;;;;6.90;79.90;;;;;;5021955;28;20288;-59
2021/03/14 07:38:45;;;;;;;;;;;7.00;80.00;;;;;;5041359;28;19909;-56
2021/03/14 07:41:10;;;;;;;;;;;6.90;80.00;;;;;;5017883;28;19951;-57
2021/03/14 07:43:36;;;;;;;;;;;7.00;80.00;;;;;;5038089;28;19913;-58
2021/03/14 07:46:01;;;;;;;;;;;6.90;80.00;;;;;;5041735;28;20288;-58
2021/03/14 07:48:27;;;;;;;;;;;6.90;80.00;;;;;;5025782;28;19909;-56
2021/03/14 07:50:53;;;;;;;;;;;6.90;80.10;;;;;;5023402;28;19909;-58
2021/03/14 07:53:18;;;;;;;;;;;6.90;80.00;;;;;;5040172;28;20323;-58
2021/03/14 07:55:52;;;;;;;;;;;7.00;80.00;;;;;;5025222;28;19920;-56
2021/03/14 07:58:18;;;;;;;;;;;7.00;80.00;;;;;;5039997;28;19913;-58
2021/03/14 08:00:43;;;;;;;;;;;7.00;80.00;;;;;;5024735;28;19909;-56
2021/03/14 08:03:09;;;;;;;;;;;7.00;80.00;;;;;;5023128;28;19921;-59
2021/03/14 08:05:41;;;;;;;;;;;7.00;80.00;;;;;;5041026;28;19959;-58
2021/03/14 08:08:10;;;;;;;;;;;7.00;79.90;;;;;;5027590;28;19909;-57
2021/03/14 08:10:45;;;;;;;;;;;7.00;80.10;;;;;;5025625;28;19955;-58
2021/03/14 08:13:14;;;;;;;;;;;7.00;79.80;;;;;;5040616;28;20388;-58
2021/03/14 08:15:39;;;;;;;;;;;7.00;79.80;;;;;;5023861;28;20000;-58
2021/03/14 08:18:05;;;;;;;;;;;7.00;80.00;;;;;;5025494;28;20360;-56
2021/03/14 08:20:34;;;;;;;;;;;7.10;80.00;;;;;;5024053;28;19975;-58
2021/03/14 08:23:01;;;;;;;;;;;7.00;79.90;;;;;;5020119;28;19960;-59
2021/03/14 08:25:36;;;;;;;;;;;7.00;79.90;;;;;;5040203;28;20691;-56
2021/03/14 08:28:22;;;;;;;;;;;7.00;80.00;;;;;;5026098;28;19956;-59
2021/03/14 08:30:48;;;;;;;;;;;7.10;80.00;;;;;;5027509;28;19913;-59
2021/03/14 08:33:32;;;;;;;;;;;7.10;79.90;;;;;;5026418;28;19914;-59
2021/03/14 08:35:58;;;;;;;;;;;7.10;80.00;;;;;;5025138;28;20008;-58
2021/03/14 08:38:23;;;;;;;;;;;7.10;79.90;;;;;;5025227;28;20005;-58
2021/03/14 08:40:49;;;;;;;;;;;7.10;79.90;;;;;;5025651;28;19913;-57
2021/03/14 08:43:34;;;;;;;;;;;7.10;80.00;;;;;;5021743;28;20357;-56
2021/03/14 08:45:59;;;;;;;;;;;7.10;80.00;;;;;;5025636;28;20336;-58
2021/03/14 08:48:25;;;;;;;;;;;7.10;80.10;;;;;;5022774;28;19913;-56
2021/03/14 08:50:52;;;;;;;;;;;7.10;80.20;;;;;;5022036;28;21293;-57
2021/03/14 08:53:17;;;;;;;;;;;7.10;80.20;;;;;;5024956;28;19920;-58
2021/03/14 08:55:43;;;;;;;;;;;7.10;80.30;;;;;;5022533;28;19913;-56
2021/03/14 08:58:14;;;;;;;;;;;7.10;80.30;;;;;;5024095;28;19916;-58
2021/03/14 09:00:40;;;;;;;;;;;7.10;80.40;;;;;;5041333;28;19916;-56
2021/03/14 09:03:05;;;;;;;;;;;7.10;80.10;;;;;;5028597;28;19921;-59
2021/03/14 09:05:59;;;;;;;;;;;7.10;80.00;;;;;;5031298;28;19920;-58
2021/03/14 09:08:25;;;;;;;;;;;7.10;80.00;;;;;;5042482;28;19913;-57
2021/03/14 09:10:50;;;;;;;;;;;7.10;79.90;;;;;;5028501;28;19910;-58
2021/03/14 09:13:25;;;;;;;;;;;7.20;79.80;;;;;;5036884;28;19909;-57
2021/03/14 09:15:51;;;;;;;;;;;7.20;79.70;;;;;;5026129;28;19921;-57
2021/03/14 09:18:21;;;;;;;;;;;7.20;79.60;;;;;;5029043;28;19932;-58
2021/03/14 09:20:54;;;;;;;;;;;7.20;79.80;;;;;;5043368;28;19914;-56
2021/03/14 09:23:20;;;;;;;;;;;7.30;79.80;;;;;;5025754;28;19914;-57
2021/03/14 09:25:52;;;;;;;;;;;7.30;79.80;;;;;;5029035;28;19924;-56
2021/03/14 09:28:18;;;;;;;;;;;7.30;79.70;;;;;;5028275;28;19913;-57
2021/03/14 09:30:43;;;;;;;;;;;7.30;79.80;;;;;;5023924;28;19909;-57
2021/03/14 09:33:08;;;;;;;;;;;7.30;79.80;;;;;;5026279;28;19940;-60
2021/03/14 09:35:34;;;;;;;;;;;7.30;80.00;;;;;;5025886;28;20295;-57
2021/03/14 09:38:09;;;;;;;;;;;7.40;79.60;;;;;;5044253;28;19920;-58
2021/03/14 09:40:35;;;;;;;;;;;7.40;79.50;;;;;;5020046;28;20488;-59
2021/03/14 09:43:06;;;;;;;;;;;7.40;79.60;;;;;;5028261;28;20072;-57
2021/03/14 09:45:32;;;;;;;;;;;7.40;79.50;;;;;;5018925;28;19990;-57
2021/03/14 09:47:58;;;;;;;;;;;7.50;79.40;;;;;;5043174;28;19913;-58
2021/03/14 09:50:24;;;;;;;;;;;7.50;79.40;;;;;;5026199;28;20003;-59
2021/03/14 09:52:49;;;;;;;;;;;7.50;79.50;;;;;;5027966;28;20008;-59
2021/03/14 09:55:21;;;;;;;;;;;7.50;79.50;;;;;;5022934;28;19917;-57
2021/03/14 09:57:46;;;;;;;;;;;7.50;79.40;;;;;;5028910;28;19913;-58
2021/03/14 10:00:12;;;;;;;;;;;7.50;79.40;;;;;;5025012;28;19967;-59
2021/03/14 10:02:38;;;;;;;;;;;7.60;79.50;;;;;;5021502;28;19961;-57
2021/03/14 10:05:03;;;;;;;;;;;7.60;79.40;;;;;;5041956;28;19960;-58
2021/03/14 10:07:29;;;;;;;;;;;7.60;79.40;;;;;;5025445;28;20430;-57
2021/03/14 10:09:54;;;;;;;;;;;7.60;79.40;;;;;;5028573;28;19916;-57
2021/03/14 10:12:20;;;;;;;;;;;7.60;79.30;;;;;;5017567;28;19913;-59
2021/03/14 10:14:45;;;;;;;;;;;7.60;79.30;;;;;;5022529;28;20480;-59
2021/03/14 10:17:11;;;;;;;;;;;7.60;79.10;;;;;;5023493;28;19932;-59
2021/03/14 10:19:37;;;;;;;;;;;7.70;79.10;;;;;;5028575;28;20008;-59
2021/03/14 10:22:02;;;;;;;;;;;7.70;79.10;;;;;;5028701;28;19909;-59
2021/03/14 10:24:28;;;;;;;;;;;7.70;79.10;;;;;;5026637;28;19913;-57
2021/03/14 10:26:59;;;;;;;;;;;7.70;79.00;;;;;;5026462;28;19909;-59
2021/03/14 10:29:35;;;;;;;;;;;7.80;79.00;;;;;;5025814;28;19914;-57
2021/03/14 10:32:01;;;;;;;;;;;7.80;78.90;;;;;;5034168;28;20300;-59
2021/03/14 10:34:26;;;;;;;;;;;7.80;78.80;;;;;;5025627;28;19917;-59
2021/03/14 10:36:52;;;;;;;;;;;7.80;78.80;;;;;;5026007;28;19909;-58
2021/03/14 10:39:24;;;;;;;;;;;7.90;78.80;;;;;;5024137;28;19909;-57
2021/03/14 10:41:50;;;;;;;;;;;7.90;78.80;;;;;;5026914;28;19996;-58
2021/03/14 10:44:18;;;;;;;;;;;7.90;78.80;;;;;;5025323;28;19996;-59
2021/03/14 10:46:45;;;;;;;;;;;7.90;78.70;;;;;;5024183;28;19924;-56
2021/03/14 10:49:12;;;;;;;;;;;7.90;78.60;;;;;;5026507;28;19953;-59
2021/03/14 10:51:37;;;;;;;;;;;8.00;78.60;;;;;;5039972;28;20325;-60
2021/03/14 10:54:07;;;;;;;;;;;8.10;78.60;;;;;;5026674;28;20048;-57
2021/03/14 10:56:38;;;;;;;;;;;8.00;78.50;;;;;;5025484;28;20362;-59
2021/03/14 10:59:04;;;;;;;;;;;8.00;78.50;;;;;;5043071;28;20360;-56
2021/03/14 11:01:40;;;;;;;;;;;8.00;78.40;;;;;;5026223;28;19913;-57
2021/03/14 11:04:06;;;;;;;;;;;8.10;78.50;;;;;;5028186;28;19921;-59
2021/03/14 11:06:32;;;;;;;;;;;8.20;78.30;;;;;;5029680;28;19913;-59
2021/03/14 11:09:02;;;;;;;;;;;8.20;78.20;;;;;;5022367;28;19913;-57
2021/03/14 11:11:43;;;;;;;;;;;8.20;78.30;;;;;;5035787;28;19914;-58
2021/03/14 11:14:27;;;;;;;;;;;8.20;78.20;;;;;;5040917;28;19913;-58
2021/03/14 11:17:05;;;;;;;;;;;8.20;78.40;;;;;;5027446;28;20036;-57
2021/03/14 11:19:30;;;;;;;;;;;8.30;78.10;;;;;;5022750;28;20358;-58
2021/03/14 11:21:56;;;;;;;;;;;8.30;78.00;;;;;;5024580;28;19909;-56
2021/03/14 11:24:21;;;;;;;;;;;8.30;77.90;;;;;;5021562;28;19936;-59
2021/03/14 11:26:47;;;;;;;;;;;8.40;77.70;;;;;;5025486;28;19920;-57
2021/03/14 11:29:12;;;;;;;;;;;8.40;77.70;;;;;;5024808;28;20004;-59
2021/03/14 11:31:38;;;;;;;;;;;8.40;77.70;;;;;;5025326;28;20361;-59
2021/03/14 11:34:03;;;;;;;;;;;8.50;77.60;;;;;;5021379;28;19960;-59
2021/03/14 11:36:29;;;;;;;;;;;8.50;77.60;;;;;;5024522;28;19913;-59
2021/03/14 11:38:54;;;;;;;;;;;8.70;77.70;;;;;;5027461;28;20414;-57
2021/03/14 11:41:19;;;;;;;;;;;8.50;77.50;;;;;;5024971;28;19932;-57
2021/03/14 11:43:45;;;;;;;;;;;8.50;77.40;;;;;;5026742;28;19914;-57
2021/03/14 11:46:10;;;;;;;;;;;8.50;77.40;;;;;;5021881;28;19917;-60
2021/03/14 11:48:36;;;;;;;;;;;8.60;77.40;;;;;;5026562;28;20387;-58
2021/03/14 11:51:01;;;;;;;;;;;8.60;77.30;;;;;;5022935;28;19913;-59
2021/03/14 11:53:27;;;;;;;;;;;8.60;77.20;;;;;;5016428;28;19999;-57
2021/03/14 11:55:52;;;;;;;;;;;8.60;77.10;;;;;;5024978;28;20403;-57
2021/03/14 11:58:19;;;;;;;;;;;8.60;77.20;;;;;;5022797;28;19917;-59
2021/03/14 12:00:45;;;;;;;;;;;8.60;77.10;;;;;;5023421;28;19928;-59
2021/03/14 12:03:10;;;;;;;;;;;8.70;77.20;;;;;;5026015;28;19929;-58
2021/03/14 12:05:36;;;;;;;;;;;8.70;77.10;;;;;;5022104;28;20012;-57
2021/03/14 12:08:01;;;;;;;;;;;8.70;77.00;;;;;;5026583;28;19917;-57
2021/03/14 12:10:26;;;;;;;;;;;8.70;77.00;;;;;;5021715;28;20395;-57
2021/03/14 12:12:52;;;;;;;;;;;8.70;77.00;;;;;;5025100;28;19919;-57
2021/03/14 12:15:17;;;;;;;;;;;8.70;76.90;;;;;;5023194;28;20260;-58
2021/03/14 12:17:43;;;;;;;;;;;8.70;76.90;;;;;;5042373;28;20380;-57
2021/03/14 12:20:09;;;;;;;;;;;8.70;76.80;;;;;;5026407;28;19909;-59
2021/03/14 12:22:35;;;;;;;;;;;8.70;77.10;;;;;;5036163;28;19988;-59
2021/03/14 12:25:00;;;;;;;;;;;8.70;76.80;;;;;;5022898;28;20019;-57
2021/03/14 12:27:26;;;;;;;;;;;8.80;76.90;;;;;;5024066;28;19909;-57
2021/03/14 12:29:51;;;;;;;;;;;8.80;77.00;;;;;;5026218;28;19962;-57
2021/03/14 12:32:17;;;;;;;;;;;8.80;77.10;;;;;;5025669;28;20367;-57
2021/03/14 12:34:42;;;;;;;;;;;8.70;77.00;;;;;;5023710;28;19925;-58
2021/03/14 12:37:09;;;;;;;;;;;8.80;77.10;;;;;;5020990;28;19917;-57
2021/03/14 12:39:35;;;;;;;;;;;8.80;77.20;;;;;;5025542;28;19953;-56
2021/03/14 12:42:00;;;;;;;;;;;8.70;77.20;;;;;;5029620;28;19975;-58
2021/03/14 12:44:25;;;;;;;;;;;8.70;77.20;;;;;;5028602;28;20299;-58
2021/03/14 12:46:51;;;;;;;;;;;8.70;77.20;;;;;;5029685;28;19914;-59
2021/03/14 12:49:16;;;;;;;;;;;8.70;77.20;;;;;;5026050;28;19928;-57
2021/03/14 12:51:42;;;;;;;;;;;8.70;77.20;;;;;;5043962;28;20262;-58
2021/03/14 12:54:07;;;;;;;;;;;8.70;77.20;;;;;;5031086;28;19925;-57
2021/03/14 12:56:33;;;;;;;;;;;8.70;77.30;;;;;;5029659;28;19957;-59
2021/03/14 12:59:00;;;;;;;;;;;8.70;77.30;;;;;;5032138;28;19913;-58
2021/03/14 13:01:26;;;;;;;;;;;8.70;77.30;;;;;;5030853;28;19921;-59
2021/03/14 13:03:52;;;;;;;;;;;8.70;77.30;;;;;;5029312;28;19935;-57
2021/03/14 13:06:17;;;;;;;;;;;8.70;77.40;;;;;;5011286;28;20388;-59
2021/03/14 13:08:42;;;;;;;;;;;8.70;77.30;;;;;;5019462;28;19922;-57
2021/03/14 13:11:08;;;;;;;;;;;8.70;77.40;;;;;;5026219;28;19913;-59
2021/03/14 13:13:33;;;;;;;;;;;8.80;77.40;;;;;;5017474;28;19955;-56
2021/03/14 13:15:59;;;;;;;;;;;8.70;77.50;;;;;;5018039;28;19917;-56
2021/03/14 13:18:24;;;;;;;;;;;8.70;77.50;;;;;;5027924;28;20416;-57
2021/03/14 13:20:50;;;;;;;;;;;8.80;77.50;;;;;;5030014;28;19995;-58
2021/03/14 13:23:17;;;;;;;;;;;8.80;77.50;;;;;;5028509;28;20295;-58
2021/03/14 13:25:42;;;;;;;;;;;8.80;77.50;;;;;;5028639;28;20272;-57
2021/03/14 13:28:08;;;;;;;;;;;8.80;77.50;;;;;;5027606;28;19967;-56
2021/03/14 13:30:33;;;;;;;;;;;8.90;77.40;;;;;;5029189;28;19917;-59
2021/03/14 13:32:59;;;;;;;;;;;8.90;77.20;;;;;;5021105;28;19913;-58
2021/03/14 13:35:24;;;;;;;;;;;8.90;77.10;;;;;;5019665;28;19971;-58
2021/03/14 13:37:50;;;;;;;;;;;8.90;77.20;;;;;;5042989;28;19971;-58
2021/03/14 13:40:16;;;;;;;;;;;8.90;77.20;;;;;;5016544;28;19917;-58
2021/03/14 13:42:41;;;;;;;;;;;8.90;77.20;;;;;;5037938;28;20051;-58
2021/03/14 13:45:07;;;;;;;;;;;9.00;77.20;;;;;;5025855;28;19916;-59
2021/03/14 13:47:32;;;;;;;;;;;9.00;77.20;;;;;;5027870;28;19920;-57
2021/03/14 13:49:58;;;;;;;;;;;9.00;77.40;;;;;;5027842;28;19914;-58
2021/03/14 13:52:23;;;;;;;;;;;9.00;77.50;;;;;;5033634;28;19909;-58
2021/03/14 13:54:49;;;;;;;;;;;9.00;77.50;;;;;;5026065;28;19921;-55
2021/03/14 13:57:14;;;;;;;;;;;9.00;77.70;;;;;;5029374;28;19923;-59
2021/03/14 13:59:40;;;;;;;;;;;9.00;78.50;;;;;;5030038;28;19916;-57
2021/03/14 14:02:05;;;;;;;;;;;9.00;77.80;;;;;;5028709;28;19967;-56
2021/03/14 14:04:31;;;;;;;;;;;9.00;77.90;;;;;;5029603;28;19917;-59
2021/03/14 14:06:56;;;;;;;;;;;9.00;77.90;;;;;;5030161;28;19909;-57
2021/03/14 14:09:22;;;;;;;;;;;9.00;77.90;;;;;;5027652;28;19917;-58
2021/03/14 14:11:47;;;;;;;;;;;9.00;77.90;;;;;;5029535;28;19916;-57
2021/03/14 14:14:13;;;;;;;;;;;9.00;77.80;;;;;;5031415;28;19913;-59
2021/03/14 14:16:39;;;;;;;;;;;9.00;77.90;;;;;;5030975;28;19909;-57
2021/03/14 14:19:04;;;;;;;;;;;9.00;78.00;;;;;;5028901;28;19975;-57
2021/03/14 14:21:30;;;;;;;;;;;9.00;78.10;;;;;;5044318;28;19921;-59
2021/03/14 14:23:55;;;;;;;;;;;8.90;78.30;;;;;;5029378;28;19917;-59
2021/03/14 14:26:21;;;;;;;;;;;9.00;78.50;;;;;;5029732;28;19917;-59
2021/03/14 14:28:46;;;;;;;;;;;8.90;78.50;;;;;;5031137;28;19913;-59